Time;durP1;ratioP1;P1;durP2;ratioP2;P2;SDS_P1;SDS_P2;PMS_P1;PMS_P2;Temp;Humidity;BMP_temperature;BMP_pressure;BME280_temperature;BME280_humidity;BME280_pressure;Samples;Min_cycle;Max_cycle;Signal;HPM_P1;HPM_P2
2023/03/14 00:01:25;;;;;;;5.70;2.50;;;;;;;;;;5072739;28;20219;-57
2023/03/14 00:03:52;;;;;;;4.93;2.33;;;;;;;;;;5072880;28;20200;-56
2023/03/14 00:06:18;;;;;;;4.83;2.00;;;;;;;;;;5072494;28;20300;-56
2023/03/14 00:08:44;;;;;;;9.53;2.40;;;;;;;;;;5072391;28;20199;-56
2023/03/14 00:11:11;;;;;;;4.53;2.27;;;;;;;;;;5072418;28;20263;-56
2023/03/14 00:13:37;;;;;;;5.87;2.00;;;;;;;;;;5072436;28;20294;-57
2023/03/14 00:16:06;;;;;;;5.03;2.20;;;;;;;;;;5072230;28;20672;-56
2023/03/14 00:18:33;;;;;;;5.50;2.43;;;;;;;;;;5072327;28;20203;-57
2023/03/14 00:20:59;;;;;;;4.10;1.97;;;;;;;;;;5072441;28;20199;-56
2023/03/14 00:23:25;;;;;;;4.97;2.27;;;;;;;;;;5071686;28;20203;-56
2023/03/14 00:25:51;;;;;;;4.47;2.07;;;;;;;;;;5072247;28;20235;-56
2023/03/14 00:28:17;;;;;;;3.97;2.07;;;;;;;;;;5072191;28;20206;-57
2023/03/14 00:30:43;;;;;;;5.40;2.10;;;;;;;;;;5071858;28;20360;-56
2023/03/14 00:33:10;;;;;;;6.40;2.10;;;;;;;;;;5072226;28;20204;-57
2023/03/14 00:35:36;;;;;;;4.37;1.90;;;;;;;;;;5072298;28;20199;-57
2023/03/14 00:38:02;;;;;;;3.90;2.13;;;;;;;;;;5071822;28;20214;-57
2023/03/14 00:40:28;;;;;;;4.13;2.13;;;;;;;;;;5071697;28;20196;-57
2023/03/14 00:42:54;;;;;;;5.63;2.37;;;;;;;;;;5071837;28;20219;-57
2023/03/14 00:45:20;;;;;;;6.03;2.10;;;;;;;;;;5071609;28;20243;-57
2023/03/14 00:47:46;;;;;;;6.23;2.07;;;;;;;;;;5071760;28;20306;-56
2023/03/14 00:50:14;;;;;;;4.37;2.53;;;;;;;;;;5071679;28;20204;-57
2023/03/14 00:52:40;;;;;;;3.40;2.10;;;;;;;;;;5071693;28;20225;-57
2023/03/14 00:55:06;;;;;;;2.57;1.80;;;;;;;;;;5071916;28;20195;-57
2023/03/14 00:57:32;;;;;;;5.57;2.13;;;;;;;;;;5071645;28;20209;-57
2023/03/14 00:59:58;;;;;;;4.13;1.97;;;;;;;;;;5071548;28;20192;-57
2023/03/14 01:02:24;;;;;;;3.93;1.90;;;;;;;;;;5071542;28;20697;-57
2023/03/14 01:04:50;;;;;;;4.67;2.17;;;;;;;;;;5071499;28;20206;-57
2023/03/14 01:07:18;;;;;;;2.60;1.83;;;;;;;;;;5071165;28;20532;-57
2023/03/14 01:09:44;;;;;;;5.57;2.00;;;;;;;;;;5071406;28;20562;-57
2023/03/14 01:12:09;;;;;;;3.67;1.80;;;;;;;;;;5071419;28;20675;-57
2023/03/14 01:14:36;;;;;;;3.10;1.90;;;;;;;;;;5071279;28;20279;-57
2023/03/14 01:17:02;;;;;;;2.90;2.00;;;;;;;;;;5071352;28;20195;-57
2023/03/14 01:19:28;;;;;;;4.57;2.30;;;;;;;;;;5071261;28;20257;-57
2023/03/14 01:21:54;;;;;;;4.07;2.00;;;;;;;;;;5071577;28;20197;-57
2023/03/14 01:24:22;;;;;;;3.83;2.00;;;;;;;;;;5071107;28;20285;-57
2023/03/14 01:26:48;;;;;;;3.07;1.97;;;;;;;;;;5071164;28;20569;-57
2023/03/14 01:29:14;;;;;;;6.33;2.30;;;;;;;;;;5071135;28;20205;-57
2023/03/14 01:31:40;;;;;;;5.37;1.70;;;;;;;;;;5071215;28;20288;-56
2023/03/14 01:34:05;;;;;;;4.83;2.53;;;;;;;;;;5071019;28;20287;-57
2023/03/14 01:36:31;;;;;;;3.63;2.03;;;;;;;;;;5070400;28;20188;-57
2023/03/14 01:38:57;;;;;;;4.50;2.23;;;;;;;;;;5071034;28;20199;-57
2023/03/14 01:41:26;;;;;;;3.70;1.47;;;;;;;;;;5071166;28;20188;-57
2023/03/14 01:43:52;;;;;;;3.67;1.80;;;;;;;;;;5071096;28;20289;-57
2023/03/14 01:46:20;;;;;;;3.37;1.80;;;;;;;;;;5070846;28;20231;-57
2023/03/14 01:48:48;;;;;;;3.80;1.67;;;;;;;;;;5071199;28;20210;-57
2023/03/14 01:51:16;;;;;;;3.87;2.17;;;;;;;;;;5070927;28;20204;-57
2023/03/14 01:53:42;;;;;;;3.73;1.90;;;;;;;;;;5070881;28;20195;-57
2023/03/14 01:56:10;;;;;;;5.33;2.10;;;;;;;;;;5071130;28;20230;-57
2023/03/14 01:58:39;;;;;;;3.43;2.13;;;;;;;;;;5070867;28;20195;-57
2023/03/14 02:01:06;;;;;;;4.03;2.20;;;;;;;;;;5070862;28;20619;-57
2023/03/14 02:03:36;;;;;;;4.20;1.97;;;;;;;;;;5070687;28;20625;-57
2023/03/14 02:06:05;;;;;;;4.00;2.23;;;;;;;;;;5070769;28;20249;-57
2023/03/14 02:08:31;;;;;;;5.23;1.97;;;;;;;;;;5070715;28;20199;-57
2023/03/14 02:10:57;;;;;;;4.53;2.43;;;;;;;;;;5070946;28;20216;-57
2023/03/14 02:13:23;;;;;;;5.03;2.20;;;;;;;;;;5070641;28;20203;-57
2023/03/14 02:15:51;;;;;;;3.67;1.90;;;;;;;;;;5069773;28;20680;-57
2023/03/14 02:18:17;;;;;;;5.20;2.20;;;;;;;;;;5070097;28;20519;-57
2023/03/14 02:20:48;;;;;;;7.03;2.63;;;;;;;;;;5069684;28;20215;-57
2023/03/14 02:23:15;;;;;;;6.20;2.07;;;;;;;;;;5069776;28;20650;-57
2023/03/14 02:25:43;;;;;;;3.93;2.07;;;;;;;;;;5070641;28;20219;-57
2023/03/14 02:28:10;;;;;;;4.50;2.23;;;;;;;;;;5070722;28;20732;-57
2023/03/14 02:30:36;;;;;;;4.63;1.80;;;;;;;;;;5070553;28;20669;-57
2023/03/14 02:33:04;;;;;;;4.47;2.00;;;;;;;;;;5070572;28;20195;-57
2023/03/14 02:35:33;;;;;;;3.93;1.80;;;;;;;;;;5070386;28;20231;-57
2023/03/14 02:38:01;;;;;;;4.87;1.87;;;;;;;;;;5070520;28;20203;-57
2023/03/14 02:40:27;;;;;;;4.17;1.83;;;;;;;;;;5070512;28;20207;-57
2023/03/14 02:42:53;;;;;;;5.27;1.87;;;;;;;;;;5070414;28;20586;-57
2023/03/14 02:45:37;;;;;;;4.43;2.00;;;;;;;;;;5070332;28;20251;-57
2023/03/14 02:48:05;;;;;;;5.23;1.90;;;;;;;;;;5073844;28;20274;-57
2023/03/14 02:50:33;;;;;;;4.37;1.93;;;;;;;;;;5073925;28;20200;-57
2023/03/14 02:52:59;;;;;;;5.90;2.10;;;;;;;;;;5074044;28;20613;-56
2023/03/14 02:55:26;;;;;;;6.33;2.00;;;;;;;;;;5073921;28;20541;-56
2023/03/14 02:57:53;;;;;;;2.73;1.47;;;;;;;;;;5073976;28;20220;-56
2023/03/14 03:00:19;;;;;;;3.40;1.90;;;;;;;;;;5073817;28;20203;-56
2023/03/14 03:02:46;;;;;;;4.60;1.80;;;;;;;;;;5073736;28;20208;-56
2023/03/14 03:05:12;;;;;;;3.73;2.20;;;;;;;;;;5073661;28;20233;-56
2023/03/14 03:07:38;;;;;;;3.17;1.87;;;;;;;;;;5073751;28;20705;-56
2023/03/14 03:10:05;;;;;;;4.73;1.73;;;;;;;;;;5073573;28;20193;-57
2023/03/14 03:12:31;;;;;;;5.07;2.00;;;;;;;;;;5073508;28;20200;-56
2023/03/14 03:14:57;;;;;;;5.73;2.03;;;;;;;;;;5073785;28;20203;-56
2023/03/14 03:17:23;;;;;;;6.50;1.90;;;;;;;;;;5073705;28;20187;-57
2023/03/14 03:19:50;;;;;;;6.37;2.00;;;;;;;;;;5073358;28;20195;-57
2023/03/14 03:22:16;;;;;;;7.03;2.13;;;;;;;;;;5073493;28;20294;-57
2023/03/14 03:24:42;;;;;;;4.63;1.90;;;;;;;;;;5073548;28;20207;-56
2023/03/14 03:27:08;;;;;;;4.17;1.70;;;;;;;;;;5073697;28;20243;-57
2023/03/14 03:29:34;;;;;;;4.87;2.03;;;;;;;;;;5073202;28;20207;-58
2023/03/14 03:32:00;;;;;;;5.60;2.00;;;;;;;;;;5073364;28;20278;-57
2023/03/14 03:34:27;;;;;;;4.23;1.97;;;;;;;;;;5073314;28;20649;-56
2023/03/14 03:36:57;;;;;;;6.27;1.93;;;;;;;;;;5073234;28;20191;-56
2023/03/14 03:39:23;;;;;;;6.07;2.00;;;;;;;;;;5072954;28;20198;-56
2023/03/14 03:41:49;;;;;;;7.00;2.03;;;;;;;;;;5072945;28;20582;-56
2023/03/14 03:44:15;;;;;;;4.27;1.60;;;;;;;;;;5073021;28;20235;-56
2023/03/14 03:46:41;;;;;;;6.00;2.03;;;;;;;;;;5072948;28;20572;-55
2023/03/14 03:49:07;;;;;;;4.07;1.50;;;;;;;;;;5073032;28;20207;-56
2023/03/14 03:51:33;;;;;;;3.23;1.70;;;;;;;;;;5072837;28;20200;-56
2023/03/14 03:54:00;;;;;;;3.37;1.40;;;;;;;;;;5072941;28;20196;-57
2023/03/14 03:56:26;;;;;;;2.83;1.27;;;;;;;;;;5072848;28;20199;-57
2023/03/14 03:58:52;;;;;;;2.20;1.20;;;;;;;;;;5072152;28;20279;-56
2023/03/14 04:01:18;;;;;;;4.03;1.57;;;;;;;;;;5072708;28;20653;-55
2023/03/14 04:03:44;;;;;;;3.07;1.50;;;;;;;;;;5072532;28;20207;-56
2023/03/14 04:06:11;;;;;;;2.53;1.40;;;;;;;;;;5072860;28;20224;-56
2023/03/14 04:08:37;;;;;;;1.63;1.13;;;;;;;;;;5072650;28;20191;-56
2023/03/14 04:11:05;;;;;;;3.73;1.50;;;;;;;;;;5072869;28;20199;-57
2023/03/14 04:13:31;;;;;;;3.67;1.47;;;;;;;;;;5072527;28;20202;-57
2023/03/14 04:15:57;;;;;;;2.87;1.27;;;;;;;;;;5072544;28;20270;-57
2023/03/14 04:18:26;;;;;;;3.57;1.67;;;;;;;;;;5072701;28;20250;-57
2023/03/14 04:20:53;;;;;;;4.00;1.30;;;;;;;;;;5072368;28;20260;-58
2023/03/14 04:23:19;;;;;;;4.40;1.60;;;;;;;;;;5072390;28;20206;-58
2023/03/14 04:25:45;;;;;;;4.00;1.30;;;;;;;;;;5072094;28;20310;-57
2023/03/14 04:28:12;;;;;;;4.57;2.10;;;;;;;;;;5072166;28;20231;-56
2023/03/14 04:30:38;;;;;;;2.40;1.30;;;;;;;;;;5072211;28;20534;-56
2023/03/14 04:33:04;;;;;;;3.30;1.67;;;;;;;;;;5072137;28;20203;-56
2023/03/14 04:35:31;;;;;;;4.00;1.60;;;;;;;;;;5072014;28;20200;-56
2023/03/14 04:37:57;;;;;;;3.00;1.50;;;;;;;;;;5072072;28;20286;-56
2023/03/14 04:40:23;;;;;;;3.00;1.40;;;;;;;;;;5072430;28;20283;-56
2023/03/14 04:42:49;;;;;;;3.50;1.57;;;;;;;;;;5072039;28;20219;-56
2023/03/14 04:45:16;;;;;;;3.23;1.43;;;;;;;;;;5072010;28;20238;-56
2023/03/14 04:47:42;;;;;;;1.93;1.40;;;;;;;;;;5071902;28;20223;-56
2023/03/14 04:50:08;;;;;;;2.20;1.30;;;;;;;;;;5070002;28;20210;-56
2023/03/14 04:52:34;;;;;;;4.80;1.50;;;;;;;;;;5071663;28;20566;-56
2023/03/14 04:55:00;;;;;;;2.37;1.40;;;;;;;;;;5071527;28;20208;-56
2023/03/14 04:57:26;;;;;;;2.70;1.37;;;;;;;;;;5071508;28;20290;-56
2023/03/14 04:59:52;;;;;;;1.90;1.53;;;;;;;;;;5071605;28;20215;-56
2023/03/14 05:02:20;;;;;;;2.43;1.50;;;;;;;;;;5071373;28;20750;-56
2023/03/14 05:04:46;;;;;;;4.13;1.87;;;;;;;;;;5071186;28;20200;-56
2023/03/14 05:07:12;;;;;;;3.80;1.60;;;;;;;;;;5071373;28;20223;-56
2023/03/14 05:09:37;;;;;;;5.13;1.73;;;;;;;;;;5071165;28;20675;-56
2023/03/14 05:12:04;;;;;;;3.23;1.80;;;;;;;;;;5071368;28;20199;-56
2023/03/14 05:14:30;;;;;;;2.83;1.60;;;;;;;;;;5071157;28;20196;-56
2023/03/14 05:16:56;;;;;;;4.67;1.60;;;;;;;;;;5071133;28;20256;-56
2023/03/14 05:19:23;;;;;;;2.97;1.77;;;;;;;;;;5071402;28;20200;-56
2023/03/14 05:21:49;;;;;;;3.80;1.70;;;;;;;;;;5071010;28;20614;-56
2023/03/14 05:24:15;;;;;;;5.70;1.90;;;;;;;;;;5070999;28;20670;-56
2023/03/14 05:26:41;;;;;;;3.33;1.67;;;;;;;;;;5071161;28;20223;-56
2023/03/14 05:29:07;;;;;;;2.47;1.70;;;;;;;;;;5071275;28;20226;-56
2023/03/14 05:31:33;;;;;;;4.13;2.03;;;;;;;;;;5070897;28;20231;-56
2023/03/14 05:33:59;;;;;;;3.17;2.47;;;;;;;;;;5070908;28;20199;-56
2023/03/14 05:36:27;;;;;;;5.13;2.23;;;;;;;;;;5071015;28;20203;-56
2023/03/14 05:38:53;;;;;;;5.83;3.10;;;;;;;;;;5070959;28;20207;-56
2023/03/14 05:41:19;;;;;;;5.03;2.70;;;;;;;;;;5070922;28;20199;-56
2023/03/14 05:43:45;;;;;;;5.77;2.57;;;;;;;;;;5070563;28;20362;-56
2023/03/14 05:46:10;;;;;;;3.27;2.47;;;;;;;;;;5071011;28;20227;-56
2023/03/14 05:48:37;;;;;;;5.67;2.77;;;;;;;;;;5070902;28;20649;-56
2023/03/14 05:51:03;;;;;;;6.57;2.97;;;;;;;;;;5070828;28;20184;-56
2023/03/14 05:53:30;;;;;;;5.77;3.27;;;;;;;;;;5070712;28;20207;-56
2023/03/14 05:55:56;;;;;;;7.37;3.10;;;;;;;;;;5070784;28;20196;-56
2023/03/14 05:58:22;;;;;;;7.10;3.07;;;;;;;;;;5071256;28;20195;-56
2023/03/14 06:00:48;;;;;;;7.60;3.17;;;;;;;;;;5070682;28;20338;-56
2023/03/14 06:03:14;;;;;;;5.10;2.67;;;;;;;;;;5070795;28;20200;-56
2023/03/14 06:05:40;;;;;;;6.33;2.83;;;;;;;;;;5070696;28;20653;-56
2023/03/14 06:08:06;;;;;;;5.80;3.73;;;;;;;;;;5070761;28;20210;-57
2023/03/14 06:10:35;;;;;;;8.47;4.83;;;;;;;;;;5070532;28;20232;-55
2023/03/14 06:13:01;;;;;;;8.47;3.57;;;;;;;;;;5070529;28;20492;-55
2023/03/14 06:15:27;;;;;;;5.57;2.90;;;;;;;;;;5070542;28;20621;-55
2023/03/14 06:17:54;;;;;;;4.23;2.80;;;;;;;;;;5070046;28;20195;-56
2023/03/14 06:20:20;;;;;;;4.73;3.10;;;;;;;;;;5070041;28;20191;-56
2023/03/14 06:22:46;;;;;;;5.37;2.80;;;;;;;;;;5072830;28;20200;-55
2023/03/14 06:25:12;;;;;;;6.90;3.40;;;;;;;;;;5074278;28;20195;-55
2023/03/14 06:27:39;;;;;;;4.90;3.00;;;;;;;;;;5074333;28;20230;-56
2023/03/14 06:30:06;;;;;;;5.63;3.00;;;;;;;;;;5074662;28;20203;-56
2023/03/14 06:32:32;;;;;;;7.80;3.77;;;;;;;;;;5073990;28;20215;-56
2023/03/14 06:35:00;;;;;;;7.33;4.03;;;;;;;;;;5073945;28;20669;-56
2023/03/14 06:37:26;;;;;;;7.30;3.67;;;;;;;;;;5074143;28;20202;-56
2023/03/14 06:39:52;;;;;;;5.57;3.27;;;;;;;;;;5073966;28;20196;-56
2023/03/14 06:42:19;;;;;;;8.07;3.77;;;;;;;;;;5073654;28;20563;-56
2023/03/14 06:44:46;;;;;;;9.77;4.30;;;;;;;;;;5073508;28;20434;-56
2023/03/14 06:47:12;;;;;;;7.60;3.27;;;;;;;;;;5073749;28;20701;-56
2023/03/14 06:49:38;;;;;;;9.53;3.60;;;;;;;;;;5074115;28;20227;-56
2023/03/14 06:52:04;;;;;;;5.63;3.00;;;;;;;;;;5073809;28;20261;-56
2023/03/14 06:54:30;;;;;;;8.47;3.33;;;;;;;;;;5073673;28;20598;-56
2023/03/14 06:56:56;;;;;;;7.83;2.93;;;;;;;;;;5073664;28;20195;-55
2023/03/14 06:59:22;;;;;;;6.60;3.13;;;;;;;;;;5073875;28;20200;-55
2023/03/14 07:01:50;;;;;;;7.50;2.87;;;;;;;;;;5074053;28;20631;-55
2023/03/14 07:04:16;;;;;;;6.33;3.07;;;;;;;;;;5073813;28;20208;-55
2023/03/14 07:06:44;;;;;;;8.13;2.70;;;;;;;;;;5073368;28;20231;-55
2023/03/14 07:09:10;;;;;;;6.23;2.60;;;;;;;;;;5073864;28;20207;-56
2023/03/14 07:11:36;;;;;;;5.63;2.63;;;;;;;;;;5073512;28;20197;-55
2023/03/14 07:14:02;;;;;;;5.70;2.40;;;;;;;;;;5073417;28;20618;-55
2023/03/14 07:16:31;;;;;;;3.97;2.40;;;;;;;;;;5073474;28;20187;-55
2023/03/14 07:18:58;;;;;;;4.70;2.20;;;;;;;;;;5073123;28;20211;-55
2023/03/14 07:21:24;;;;;;;6.17;2.20;;;;;;;;;;5073512;28;20201;-55
2023/03/14 07:23:50;;;;;;;6.20;2.50;;;;;;;;;;5073122;28;20725;-55
2023/03/14 07:26:16;;;;;;;3.83;2.17;;;;;;;;;;5073078;28;20226;-56
2023/03/14 07:28:42;;;;;;;4.40;1.90;;;;;;;;;;5073257;28;20710;-55
2023/03/14 07:31:08;;;;;;;5.17;2.13;;;;;;;;;;5073492;28;20195;-56
2023/03/14 07:33:34;;;;;;;6.43;2.17;;;;;;;;;;5071927;28;20619;-56
2023/03/14 07:36:02;;;;;;;4.37;2.73;;;;;;;;;;5073103;28;20200;-56
2023/03/14 07:38:28;;;;;;;4.97;1.80;;;;;;;;;;5072995;28;20286;-56
2023/03/14 07:40:58;;;;;;;4.13;1.40;;;;;;;;;;5072970;28;20648;-56
2023/03/14 07:43:24;;;;;;;5.87;2.00;;;;;;;;;;5072805;28;20713;-55
2023/03/14 07:45:50;;;;;;;3.30;1.63;;;;;;;;;;5072502;28;20223;-56
2023/03/14 07:48:16;;;;;;;3.47;1.70;;;;;;;;;;5072660;28;20195;-56
2023/03/14 07:50:42;;;;;;;3.83;1.60;;;;;;;;;;5072671;28;20649;-56
2023/03/14 07:53:10;;;;;;;2.90;1.50;;;;;;;;;;5072789;28;20287;-56
2023/03/14 07:55:36;;;;;;;2.60;1.57;;;;;;;;;;5072772;28;20241;-56
2023/03/14 07:58:02;;;;;;;3.97;1.60;;;;;;;;;;5072675;28;20199;-56
2023/03/14 08:00:28;;;;;;;4.10;1.67;;;;;;;;;;5072589;28;20223;-56
2023/03/14 08:02:54;;;;;;;2.30;1.40;;;;;;;;;;5072700;28;20245;-56
2023/03/14 08:05:20;;;;;;;2.90;1.40;;;;;;;;;;5072594;28;20204;-56
2023/03/14 08:07:46;;;;;;;3.57;1.50;;;;;;;;;;5072218;28;20523;-56
2023/03/14 08:10:20;;;;;;;2.10;1.47;;;;;;;;;;5072488;28;20602;-56
2023/03/14 08:12:46;;;;;;;3.30;1.47;;;;;;;;;;5072266;28;20199;-55
2023/03/14 08:15:12;;;;;;;2.80;1.30;;;;;;;;;;5072008;28;20290;-56
2023/03/14 08:17:38;;;;;;;3.03;2.10;;;;;;;;;;5072217;28;20225;-56
2023/03/14 08:20:10;;;;;;;3.40;1.60;;;;;;;;;;5072115;28;20278;-56
2023/03/14 08:22:36;;;;;;;1.53;1.17;;;;;;;;;;5072306;28;20195;-56
2023/03/14 08:25:02;;;;;;;2.27;1.80;;;;;;;;;;5072095;28;20196;-56
2023/03/14 08:27:30;;;;;;;2.70;1.20;;;;;;;;;;5072034;28;20280;-56
2023/03/14 08:29:55;;;;;;;1.37;1.20;;;;;;;;;;5072019;28;20227;-55
2023/03/14 08:32:23;;;;;;;1.73;1.00;;;;;;;;;;5072075;28;20231;-56
2023/03/14 08:34:49;;;;;;;3.50;1.00;;;;;;;;;;5071777;28;20203;-55
2023/03/14 08:37:15;;;;;;;1.43;0.90;;;;;;;;;;5071648;28;20683;-56
2023/03/14 08:39:41;;;;;;;1.47;1.17;;;;;;;;;;5071772;28;20199;-55
2023/03/14 08:42:07;;;;;;;1.70;1.10;;;;;;;;;;5071836;28;20302;-56
2023/03/14 08:44:34;;;;;;;2.37;1.10;;;;;;;;;;5071160;28;20315;-56
2023/03/14 08:47:00;;;;;;;1.20;1.10;;;;;;;;;;5071535;28;20227;-55
2023/03/14 08:49:26;;;;;;;1.13;1.10;;;;;;;;;;5071780;28;20222;-57
2023/03/14 08:51:52;;;;;;;1.33;1.10;;;;;;;;;;5071619;28;20269;-55
2023/03/14 08:54:19;;;;;;;1.40;1.30;;;;;;;;;;5071401;28;20202;-55
2023/03/14 08:56:44;;;;;;;1.47;1.30;;;;;;;;;;5071332;28;20562;-55
2023/03/14 08:59:11;;;;;;;1.73;1.10;;;;;;;;;;5071489;28;20257;-56
2023/03/14 09:01:38;;;;;;;2.40;1.10;;;;;;;;;;5071246;28;20245;-55
2023/03/14 09:04:05;;;;;;;1.40;1.30;;;;;;;;;;5071236;28;20328;-56
2023/03/14 09:06:31;;;;;;;1.67;1.40;;;;;;;;;;5071071;28;20303;-57
2023/03/14 09:08:57;;;;;;;2.70;1.30;;;;;;;;;;5071036;28;20199;-56
2023/03/14 09:11:23;;;;;;;1.50;1.40;;;;;;;;;;5071430;28;20198;-56
2023/03/14 09:13:49;;;;;;;1.80;1.27;;;;;;;;;;5071111;28;20566;-56
2023/03/14 09:16:15;;;;;;;1.37;1.20;;;;;;;;;;5071261;28;20191;-56
2023/03/14 09:18:42;;;;;;;1.47;1.37;;;;;;;;;;5071040;28;20291;-56
2023/03/14 09:21:08;;;;;;;1.70;1.60;;;;;;;;;;5071290;28;20665;-60
2023/03/14 09:23:34;;;;;;;1.97;1.20;;;;;;;;;;5070998;28;20210;-56
2023/03/14 09:26:01;;;;;;;2.17;1.43;;;;;;;;;;5070759;28;20203;-56
2023/03/14 09:28:27;;;;;;;1.40;1.30;;;;;;;;;;5071131;28;20195;-55
2023/03/14 09:30:54;;;;;;;1.50;1.40;;;;;;;;;;5071063;28;20204;-57
2023/03/14 09:33:20;;;;;;;1.60;1.40;;;;;;;;;;5071284;28;20249;-56
2023/03/14 09:35:47;;;;;;;2.00;1.73;;;;;;;;;;5070933;28;20537;-57
2023/03/14 09:38:13;;;;;;;1.90;1.60;;;;;;;;;;5071219;28;20208;-56
2023/03/14 09:40:41;;;;;;;1.60;1.50;;;;;;;;;;5071060;28;20297;-56
2023/03/14 09:43:10;;;;;;;2.53;1.80;;;;;;;;;;5071130;28;20207;-56
2023/03/14 09:45:37;;;;;;;1.93;1.63;;;;;;;;;;5070736;28;20230;-56
2023/03/14 09:48:04;;;;;;;2.80;1.90;;;;;;;;;;5070596;28;20818;-56
2023/03/14 09:50:33;;;;;;;2.33;1.80;;;;;;;;;;5071025;28;20195;-56
2023/03/14 09:53:02;;;;;;;3.03;1.80;;;;;;;;;;5070571;28;20200;-56
2023/03/14 09:55:28;;;;;;;3.23;1.90;;;;;;;;;;5070765;28;20188;-56
2023/03/14 09:57:57;;;;;;;2.20;1.80;;;;;;;;;;5074346;28;20539;-56
2023/03/14 10:00:25;;;;;;;1.93;1.80;;;;;;;;;;5074985;28;20203;-56
2023/03/14 10:02:53;;;;;;;2.23;2.03;;;;;;;;;;5074733;28;20295;-56
2023/03/14 10:05:20;;;;;;;2.00;1.80;;;;;;;;;;5074811;28;20203;-56
2023/03/14 10:07:46;;;;;;;2.30;2.07;;;;;;;;;;5074454;28;20229;-56
2023/03/14 10:10:16;;;;;;;2.10;2.00;;;;;;;;;;5074654;28;20274;-56
2023/03/14 10:12:45;;;;;;;2.13;2.03;;;;;;;;;;5074427;28;20211;-56
2023/03/14 10:15:13;;;;;;;2.53;2.20;;;;;;;;;;5074638;28;20202;-56
2023/03/14 10:17:40;;;;;;;3.33;2.60;;;;;;;;;;5074519;28;20200;-55
2023/03/14 10:20:10;;;;;;;2.50;2.30;;;;;;;;;;5074766;28;20294;-55
2023/03/14 10:22:36;;;;;;;2.87;2.60;;;;;;;;;;5074520;28;20196;-56
2023/03/14 10:25:19;;;;;;;3.20;2.53;;;;;;;;;;5074269;28;20191;-57
2023/03/14 10:27:47;;;;;;;2.60;2.40;;;;;;;;;;5074234;28;20227;-54
2023/03/14 10:30:27;;;;;;;4.83;2.27;;;;;;;;;;5074213;28;20196;-56
2023/03/14 10:32:53;;;;;;;1.27;1.03;;;;;;;;;;5074513;28;20195;-57
2023/03/14 10:35:21;;;;;;;1.57;1.20;;;;;;;;;;5074122;28;20673;-56
2023/03/14 10:37:52;;;;;;;2.30;1.00;;;;;;;;;;5073934;28;20743;-57
2023/03/14 10:40:19;;;;;;;2.20;1.10;;;;;;;;;;5074038;28;20559;-55
2023/03/14 10:42:49;;;;;;;3.33;1.17;;;;;;;;;;5073719;28;20214;-56
2023/03/14 10:45:26;;;;;;;1.67;1.00;;;;;;;;;;5073666;28;20274;-56
2023/03/14 10:47:52;;;;;;;1.43;1.00;;;;;;;;;;5073808;28;20708;-56
2023/03/14 10:50:25;;;;;;;0.90;0.90;;;;;;;;;;5074133;28;20225;-56
2023/03/14 10:52:52;;;;;;;2.47;1.10;;;;;;;;;;5073840;28;20195;-55
2023/03/14 10:55:18;;;;;;;3.30;1.33;;;;;;;;;;5074050;28;20222;-57
2023/03/14 10:57:44;;;;;;;2.17;0.90;;;;;;;;;;5073649;28;20199;-56
2023/03/14 11:00:16;;;;;;;2.47;1.20;;;;;;;;;;5073781;28;20204;-56
2023/03/14 11:02:49;;;;;;;1.60;1.40;;;;;;;;;;5073443;28;20286;-56
2023/03/14 11:05:22;;;;;;;2.83;1.57;;;;;;;;;;5073533;28;20194;-55
2023/03/14 11:07:48;;;;;;;1.63;1.23;;;;;;;;;;5073162;28;20603;-55
2023/03/14 11:10:19;;;;;;;1.37;1.27;;;;;;;;;;5073334;28;20868;-56
2023/03/14 11:12:51;;;;;;;1.77;1.33;;;;;;;;;;5073325;28;20196;-56
2023/03/14 11:15:22;;;;;;;1.20;1.20;;;;;;;;;;5073289;28;20975;-56
2023/03/14 11:17:52;;;;;;;1.00;1.00;;;;;;;;;;5073189;28;20533;-55
2023/03/14 11:20:25;;;;;;;1.50;1.40;;;;;;;;;;5073244;28;20442;-56
2023/03/14 11:22:56;;;;;;;1.33;1.23;;;;;;;;;;5073140;28;20507;-53
2023/03/14 11:25:27;;;;;;;1.40;1.30;;;;;;;;;;5073202;28;20830;-56
2023/03/14 11:27:56;;;;;;;1.40;1.30;;;;;;;;;;5072985;28;20483;-56
2023/03/14 11:30:27;;;;;;;1.33;1.23;;;;;;;;;;5073268;28;20516;-56
2023/03/14 11:32:56;;;;;;;1.53;1.30;;;;;;;;;;5073114;28;20438;-56
2023/03/14 11:35:24;;;;;;;1.40;1.30;;;;;;;;;;5073235;28;20436;-56
2023/03/14 11:37:53;;;;;;;1.43;1.23;;;;;;;;;;5072799;28;20434;-55
2023/03/14 11:40:20;;;;;;;1.17;1.13;;;;;;;;;;5072961;28;20440;-55
2023/03/14 11:42:48;;;;;;;1.50;1.37;;;;;;;;;;5072517;28;20689;-55
2023/03/14 11:45:17;;;;;;;1.30;1.20;;;;;;;;;;5072566;28;20527;-55
2023/03/14 11:47:45;;;;;;;1.60;1.10;;;;;;;;;;5072660;28;20564;-54
2023/03/14 11:50:15;;;;;;;1.30;1.20;;;;;;;;;;5072893;28;20434;-56
2023/03/14 11:52:44;;;;;;;1.20;1.10;;;;;;;;;;5072485;28;20437;-57
2023/03/14 11:55:12;;;;;;;1.50;1.40;;;;;;;;;;5072714;28;20517;-55
2023/03/14 11:57:40;;;;;;;2.87;1.30;;;;;;;;;;5072865;28;20434;-56
2023/03/14 12:00:13;;;;;;;2.93;1.40;;;;;;;;;;5072766;28;20429;-55
2023/03/14 12:02:44;;;;;;;2.70;1.33;;;;;;;;;;5072822;28;20442;-55
2023/03/14 12:05:34;;;;;;;6.93;1.40;;;;;;;;;;5072589;28;20437;-57
2023/03/14 12:08:14;;;;;;;2.37;1.33;;;;;;;;;;5056684;28;20937;-58
2023/03/14 12:10:41;;;;;;;6.13;1.73;;;;;;;;;;5072461;28;20939;-55
2023/03/14 12:13:08;;;;;;;2.67;1.33;;;;;;;;;;5072466;28;20996;-56
2023/03/14 12:15:37;;;;;;;6.13;1.53;;;;;;;;;;5072166;28;20434;-56
2023/03/14 12:18:03;;;;;;;3.93;1.60;;;;;;;;;;5072350;28;20525;-56
2023/03/14 12:20:29;;;;;;;5.90;1.87;;;;;;;;;;5071298;28;20525;-57
2023/03/14 12:22:56;;;;;;;5.93;2.37;;;;;;;;;;5072136;28;20230;-56
2023/03/14 12:25:25;;;;;;;10.70;2.53;;;;;;;;;;5072279;28;20432;-56
2023/03/14 12:28:11;;;;;;;5.27;1.80;;;;;;;;;;5071821;28;20481;-56
2023/03/14 12:30:38;;;;;;;2.33;1.40;;;;;;;;;;5071810;28;20441;-57
2023/03/14 12:33:32;;;;;;;5.13;1.80;;;;;;;;;;5071736;28;20440;-56
2023/03/14 12:36:00;;;;;;;5.63;1.70;;;;;;;;;;5071700;28;20434;-56
2023/03/14 12:38:30;;;;;;;3.90;1.60;;;;;;;;;;5071793;28;20438;-57
2023/03/14 12:41:01;;;;;;;4.17;2.00;;;;;;;;;;5071748;28;20433;-56
2023/03/14 12:43:28;;;;;;;4.83;2.17;;;;;;;;;;5071437;28;20493;-56
2023/03/14 12:46:16;;;;;;;6.37;1.77;;;;;;;;;;5071929;28;20207;-56
2023/03/14 12:48:43;;;;;;;5.90;1.97;;;;;;;;;;5071616;28;20203;-56
2023/03/14 12:51:13;;;;;;;3.97;1.97;;;;;;;;;;5071678;28;20441;-56
2023/03/14 12:53:45;;;;;;;4.70;2.00;;;;;;;;;;5071550;28;20740;-55
2023/03/14 12:56:26;;;;;;;11.43;2.63;;;;;;;;;;5071683;28;20492;-55
2023/03/14 12:59:11;;;;;;;9.00;2.27;;;;;;;;;;5051417;28;20532;-56
2023/03/14 13:01:46;;;;;;;8.70;2.67;;;;;;;;;;5071432;28;20176;-56
2023/03/14 13:04:13;;;;;;;4.80;2.07;;;;;;;;;;5071332;28;20209;-56
2023/03/14 13:06:51;;;;;;;8.50;2.40;;;;;;;;;;5071516;28;20617;-55
2023/03/14 13:09:35;;;;;;;5.63;2.07;;;;;;;;;;5071323;28;20663;-55
2023/03/14 13:12:03;;;;;;;11.53;2.73;;;;;;;;;;5071195;28;20195;-56
2023/03/14 13:14:29;;;;;;;5.20;2.40;;;;;;;;;;5071218;28;20401;-56
2023/03/14 13:16:59;;;;;;;9.60;2.43;;;;;;;;;;5071169;28;20286;-56
2023/03/14 13:19:27;;;;;;;9.13;2.50;;;;;;;;;;5071229;28;20665;-56
2023/03/14 13:21:57;;;;;;;9.67;2.60;;;;;;;;;;5071210;28;20211;-56
2023/03/14 13:24:24;;;;;;;6.87;2.43;;;;;;;;;;5071180;28;20670;-57
2023/03/14 13:26:52;;;;;;;9.77;2.60;;;;;;;;;;5070898;28;20215;-57
2023/03/14 13:29:20;;;;;;;8.47;2.50;;;;;;;;;;5071085;28;20256;-57
2023/03/14 13:31:47;;;;;;;10.40;2.70;;;;;;;;;;5070829;28;20223;-56
2023/03/14 13:34:14;;;;;;;12.47;2.73;;;;;;;;;;5070864;28;20680;-56
2023/03/14 13:36:40;;;;;;;9.80;3.27;;;;;;;;;;5070882;28;20211;-59
2023/03/14 13:39:12;;;;;;;7.97;2.57;;;;;;;;;;5070858;28;20203;-56
2023/03/14 13:41:38;;;;;;;9.97;2.90;;;;;;;;;;5070968;28;20268;-56
2023/03/14 13:44:07;;;;;;;11.67;2.80;;;;;;;;;;5070684;28;20465;-58
2023/03/14 13:46:34;;;;;;;11.83;3.10;;;;;;;;;;5070614;28;20727;-56
2023/03/14 13:49:02;;;;;;;14.63;3.00;;;;;;;;;;5070705;28;20553;-56
2023/03/14 13:51:31;;;;;;;11.40;3.20;;;;;;;;;;5070622;28;20620;-56
2023/03/14 13:54:04;;;;;;;11.23;2.73;;;;;;;;;;5070583;28;20207;-56
2023/03/14 13:56:31;;;;;;;7.73;2.43;;;;;;;;;;5070652;28;20658;-56
2023/03/14 13:58:58;;;;;;;8.10;3.00;;;;;;;;;;5070693;28;20473;-57
2023/03/14 14:01:25;;;;;;;12.37;3.43;;;;;;;;;;5070735;28;20666;-58
2023/03/14 14:03:52;;;;;;;8.17;3.07;;;;;;;;;;5070647;28;20430;-57
2023/03/14 14:06:27;;;;;;;11.63;3.30;;;;;;;;;;5070543;28;20210;-56
2023/03/14 14:08:54;;;;;;;10.40;3.20;;;;;;;;;;5070698;28;20252;-56
2023/03/14 14:11:33;;;;;;;5.57;1.90;;;;;;;;;;5070718;28;20249;-57
2023/03/14 14:13:59;;;;;;;7.03;2.13;;;;;;;;;;5070657;28;20198;-56
2023/03/14 14:16:26;;;;;;;7.73;2.20;;;;;;;;;;5070748;28;20257;-58
2023/03/14 14:18:52;;;;;;;4.67;1.80;;;;;;;;;;5070732;28;20674;-57
2023/03/14 14:21:19;;;;;;;6.30;2.43;;;;;;;;;;5070368;28;20253;-56
2023/03/14 14:23:45;;;;;;;5.37;1.97;;;;;;;;;;5070451;28;20195;-57
2023/03/14 14:26:16;;;;;;;6.27;1.70;;;;;;;;;;5070461;28;20222;-57
2023/03/14 14:28:42;;;;;;;7.93;2.40;;;;;;;;;;5070493;28;20196;-58
2023/03/14 14:31:19;;;;;;;7.03;1.97;;;;;;;;;;5070565;28;20292;-57
2023/03/14 14:33:46;;;;;;;6.37;2.30;;;;;;;;;;5070265;28;20278;-57
2023/03/14 14:36:17;;;;;;;7.40;2.23;;;;;;;;;;5070220;28;20192;-57
2023/03/14 14:38:49;;;;;;;8.83;2.23;;;;;;;;;;5070273;28;20200;-58
2023/03/14 14:41:16;;;;;;;8.67;2.30;;;;;;;;;;5070331;28;20211;-58
2023/03/14 14:43:42;;;;;;;9.13;2.30;;;;;;;;;;5072859;28;20247;-58
2023/03/14 14:46:10;;;;;;;7.23;2.00;;;;;;;;;;5074090;28;20278;-58